createdAt,value
2022-11-29T00:00:47.244Z,70.32129
2022-11-29T00:02:47.480Z,70.27051
2022-11-29T00:04:47.213Z,70.16992
2022-11-29T00:06:47.247Z,69.71289
2022-11-29T00:08:47.239Z,69.80371
2022-11-29T00:12:17.410Z,70.35352
2022-11-29T00:14:17.390Z,70.46484
2022-11-29T00:16:17.589Z,70.83594
2022-11-29T00:18:17.435Z,71.12695
2022-11-29T00:20:17.414Z,70.44238
2022-11-29T00:22:17.384Z,70.43848
2022-11-29T00:24:17.396Z,70.42773
2022-11-29T00:27:35.596Z,69.7959
2022-11-29T00:29:35.546Z,70.09668
2022-11-29T00:31:35.568Z,70.27246
2022-11-29T00:33:35.596Z,70.18945
2022-11-29T00:35:35.551Z,69.33887
2022-11-29T00:37:35.539Z,69.1709
2022-11-29T00:39:35.585Z,69.68555
2022-11-29T00:43:01.386Z,70.36133
2022-11-29T00:45:01.416Z,70.3584
2022-11-29T00:47:01.360Z,69.98926
2022-11-29T00:49:01.444Z,70.31934
2022-11-29T00:51:01.369Z,70.36816
2022-11-29T00:53:01.367Z,70.74902
2022-11-29T00:55:01.372Z,70.87305
2022-11-29T00:58:12.479Z,70.75879
2022-11-29T01:00:12.523Z,71.06348
2022-11-29T01:02:12.899Z,70.83984
2022-11-29T01:04:12.904Z,70.83398
2022-11-29T01:06:12.556Z,70.39355
2022-11-29T01:08:12.621Z,69.79688
2022-11-29T01:10:12.990Z,70.54395
2022-11-29T01:13:23.326Z,70.9248
2022-11-29T01:15:23.240Z,70.83594
2022-11-29T01:17:23.249Z,70.8623
2022-11-29T01:19:23.236Z,70.23535
2022-11-29T01:21:23.269Z,70.33203
2022-11-29T01:23:23.243Z,70.5918
2022-11-29T01:25:23.301Z,70.78711
2022-11-29T01:28:26.694Z,70.27246
2022-11-29T01:30:26.612Z,70.42285
2022-11-29T01:32:26.491Z,71.04883
2022-11-29T01:34:26.600Z,70.7041
2022-11-29T01:36:26.477Z,70.66113
2022-11-29T01:38:26.456Z,70.82813
2022-11-29T01:40:26.608Z,70.81445
2022-11-29T01:42:50.577Z,70.99023
2022-11-29T01:44:50.593Z,70.49512
2022-11-29T01:46:50.571Z,70.62891
2022-11-29T01:48:50.604Z,70.33496
2022-11-29T01:50:50.578Z,70.8125
2022-11-29T01:52:50.616Z,70.64355
2022-11-29T01:54:50.520Z,70.80469
2022-11-29T01:56:50.547Z,70.77441
2022-11-29T01:58:40.560Z,71.16699
2022-11-29T02:00:40.605Z,70.89551
2022-11-29T02:02:40.641Z,71.04004
2022-11-29T02:04:40.627Z,71.38965
2022-11-29T02:06:40.563Z,71.25977
2022-11-29T02:08:40.546Z,71.08398
2022-11-29T02:10:40.600Z,70.76074
2022-11-29T02:13:47.120Z,70.13184
2022-11-29T02:15:47.238Z,70.73633
2022-11-29T02:17:47.141Z,71.02734
2022-11-29T02:19:47.060Z,70.48438
2022-11-29T02:21:47.125Z,70.7627
2022-11-29T02:23:47.076Z,70.93555
2022-11-29T02:25:47.060Z,71.20703
2022-11-29T02:28:46.637Z,71.09082
2022-11-29T02:30:46.744Z,71.57129
2022-11-29T02:32:46.858Z,71.05566
2022-11-29T02:34:47.596Z,70.93066
2022-11-29T02:36:47.032Z,70.37012
2022-11-29T02:38:46.948Z,70.04102
2022-11-29T02:40:46.902Z,70.45898
2022-11-29T02:43:28.982Z,70.27734
2022-11-29T02:45:28.982Z,70.14648
2022-11-29T02:47:29.129Z,70.56445
2022-11-29T02:49:28.968Z,70.76563
2022-11-29T02:51:29.010Z,70.82031
2022-11-29T02:53:29.017Z,70.90234
2022-11-29T02:55:29.023Z,70.56738
2022-11-29T02:57:28.986Z,70.38965
2022-11-29T02:58:52.933Z,70.71973
2022-11-29T03:00:52.909Z,70.86523
2022-11-29T03:02:53.099Z,70.80664
2022-11-29T03:04:52.998Z,71.02246
2022-11-29T03:06:52.915Z,71.1084
2022-11-29T03:08:52.954Z,70.54102
2022-11-29T03:10:52.943Z,71.07813
2022-11-29T03:14:14.186Z,71.76563
2022-11-29T03:16:14.297Z,70.57617
2022-11-29T03:18:14.212Z,70.26855
2022-11-29T03:20:14.143Z,70.75293
2022-11-29T03:22:14.140Z,70.89648
2022-11-29T03:24:14.448Z,70.99805
2022-11-29T03:26:14.522Z,70.69434
2022-11-29T03:29:50.999Z,70.7002
2022-11-29T03:31:51.038Z,70.38281
2022-11-29T03:33:51.019Z,70.17871
2022-11-29T03:35:50.990Z,70.47266
2022-11-29T03:37:50.984Z,70.90137
2022-11-29T03:39:51.028Z,71.08691
2022-11-29T03:41:51.041Z,71.19336
2022-11-29T03:44:48.785Z,70.67383
2022-11-29T03:46:48.754Z,70.42969
2022-11-29T03:48:48.527Z,70.5918
2022-11-29T03:50:48.559Z,71.00586
2022-11-29T03:52:48.490Z,70.77832
2022-11-29T03:54:48.485Z,70.73828
2022-11-29T03:56:48.499Z,70.24707
2022-11-29T03:59:30.068Z,70.40625
2022-11-29T04:01:30.198Z,70.36133
2022-11-29T04:03:30.036Z,70.83984
2022-11-29T04:05:30.033Z,71.00977
2022-11-29T04:07:30.190Z,70.8291
2022-11-29T04:09:30.038Z,71.21484
2022-11-29T04:11:30.019Z,70.94141
2022-11-29T04:14:51.284Z,70.96094
2022-11-29T04:16:51.241Z,70.8418
2022-11-29T04:18:51.176Z,70.77441
2022-11-29T04:20:51.242Z,70.625
2022-11-29T04:22:51.242Z,70.88477
2022-11-29T04:24:51.228Z,71.23633
2022-11-29T04:26:51.223Z,70.83691
2022-11-29T04:29:55.662Z,70.99512
2022-11-29T04:31:55.603Z,70.90527
2022-11-29T04:33:55.659Z,70.60449
2022-11-29T04:35:55.572Z,70.55176
2022-11-29T04:37:55.770Z,70.47168
2022-11-29T04:39:55.596Z,70.80371
2022-11-29T04:41:55.602Z,70.87695
2022-11-29T04:45:09.364Z,71.06445
2022-11-29T04:47:09.286Z,70.96484
2022-11-29T04:49:09.273Z,70.99219
2022-11-29T04:51:09.298Z,70.75488
2022-11-29T04:53:09.277Z,70.87598
2022-11-29T04:55:09.241Z,70.65332
2022-11-29T04:57:09.328Z,70.14063
2022-11-29T05:00:16.709Z,70.91504
2022-11-29T05:02:16.773Z,70.35352
2022-11-29T05:04:16.655Z,70.34766
2022-11-29T05:06:16.674Z,70.80273
2022-11-29T05:08:16.700Z,70.55371
2022-11-29T05:10:16.660Z,70.50488
2022-11-29T05:12:16.689Z,70.79395
2022-11-29T05:15:42.176Z,70.43945
2022-11-29T05:17:42.078Z,69.89746
2022-11-29T05:19:42.028Z,69.64941
2022-11-29T05:21:42.136Z,70.59473
2022-11-29T05:23:42.071Z,70.73828
2022-11-29T05:25:42.040Z,70.35645
2022-11-29T05:27:42.512Z,70.58691
2022-11-29T05:30:48.771Z,70.38477
2022-11-29T05:32:48.675Z,70.2207
2022-11-29T05:34:49.053Z,69.78125
2022-11-29T05:36:48.870Z,69.71191
2022-11-29T05:38:48.947Z,70.01953
2022-11-29T05:40:48.763Z,69.86133
2022-11-29T05:42:48.675Z,70.08887
2022-11-29T05:46:05.253Z,70.10547
2022-11-29T05:48:05.156Z,69.96777
2022-11-29T05:50:05.155Z,69.95898
2022-11-29T05:52:05.217Z,69.80664
2022-11-29T05:54:05.223Z,69.61035
2022-11-29T05:56:05.139Z,69.75781
2022-11-29T05:58:05.127Z,69.82617
2022-11-29T06:01:01.445Z,69.70801
2022-11-29T06:03:01.572Z,69.97266
2022-11-29T06:05:01.478Z,69.94922
2022-11-29T06:07:01.456Z,69.47266
2022-11-29T06:09:01.579Z,69.10156
2022-11-29T06:11:01.468Z,69.19824
2022-11-29T06:13:01.448Z,68.7002
2022-11-29T06:16:07.115Z,69.90137
2022-11-29T06:18:07.014Z,69.25195
2022-11-29T06:20:07.046Z,69.29688
2022-11-29T06:22:07.007Z,69.07324
2022-11-29T06:24:07.019Z,69.53809
2022-11-29T06:26:07.015Z,69.98926
2022-11-29T06:28:07.026Z,70.29688
2022-11-29T06:31:32.644Z,70.8623
2022-11-29T06:33:32.615Z,70.61328
2022-11-29T06:35:32.521Z,70.02637
2022-11-29T06:37:32.515Z,70.41699
2022-11-29T06:39:32.515Z,70.36914
2022-11-29T06:41:32.584Z,70.39648
2022-11-29T06:43:32.529Z,69.80762
2022-11-29T06:47:10.558Z,70.90723
2022-11-29T06:49:10.556Z,70.74023
2022-11-29T06:51:10.547Z,70.1084
2022-11-29T06:53:10.477Z,69.97754
2022-11-29T06:55:10.466Z,70.7627
2022-11-29T06:57:10.534Z,69.66113
2022-11-29T06:59:10.501Z,70.31055
2022-11-29T07:02:01.029Z,70.84863
2022-11-29T07:04:00.710Z,69.9502
2022-11-29T07:06:00.798Z,69.75781
2022-11-29T07:08:01.152Z,69.74707
2022-11-29T07:10:00.677Z,69.26758
2022-11-29T07:12:00.664Z,69.37012
2022-11-29T07:14:00.629Z,70.13379
2022-11-29T07:17:16.878Z,69.52832
2022-11-29T07:19:16.823Z,69.76758
2022-11-29T07:21:16.888Z,69.66211
2022-11-29T07:23:16.880Z,69.56836
2022-11-29T07:25:17.053Z,68.48633
2022-11-29T07:27:17.008Z,68.87012
2022-11-29T07:29:16.945Z,68.67871
2022-11-29T07:32:33.993Z,69.05859
2022-11-29T07:34:33.950Z,69.46191
2022-11-29T07:36:33.971Z,69.50977
2022-11-29T07:38:33.963Z,69.47852
2022-11-29T07:40:38.133Z,68.92383
2022-11-29T07:42:33.916Z,68.70313
2022-11-29T07:44:33.753Z,68.4043
2022-11-29T07:47:21.697Z,68.21973
2022-11-29T07:49:21.694Z,68.55664
2022-11-29T07:51:21.686Z,68.59277
2022-11-29T07:53:21.730Z,67.5459
2022-11-29T07:55:21.690Z,67.39746
2022-11-29T07:57:21.738Z,66.91309
2022-11-29T07:59:21.704Z,67.84863
2022-11-29T08:02:49.784Z,67.7041
2022-11-29T08:04:49.700Z,67.73828
2022-11-29T08:06:49.715Z,67.2334
2022-11-29T08:08:49.695Z,67.91699
2022-11-29T08:10:49.749Z,67.35156
2022-11-29T08:12:49.641Z,66.90137
2022-11-29T08:14:49.646Z,67
2022-11-29T08:17:15.326Z,66.8291
2022-11-29T08:19:15.295Z,67.3252
2022-11-29T08:21:15.254Z,67.16211
2022-11-29T08:23:15.332Z,67.01855
2022-11-29T08:25:15.315Z,66.33594
2022-11-29T08:27:15.291Z,66.29395
2022-11-29T08:29:15.266Z,66.29297
2022-11-29T08:31:15.426Z,66.51855
2022-11-29T08:32:51.977Z,66.41406
2022-11-29T08:34:49.964Z,66.68652
2022-11-29T08:36:50.019Z,66.09863
2022-11-29T08:38:59.372Z,67.18652
2022-11-29T08:40:49.939Z,65.7002
2022-11-29T08:42:49.925Z,65.83887
2022-11-29T08:44:49.975Z,66.82715
2022-11-29T08:47:46.333Z,65.69727
2022-11-29T08:49:46.296Z,65.88184
2022-11-29T08:51:46.402Z,65.14258
2022-11-29T08:53:46.307Z,65.42773
2022-11-29T08:55:46.311Z,65.11621
2022-11-29T08:57:46.381Z,65.4375
2022-11-29T08:59:46.233Z,65.38965
2022-11-29T09:03:34.791Z,64.7334
2022-11-29T09:05:34.816Z,64.72852
2022-11-29T09:07:35.793Z,65.55957
2022-11-29T09:09:34.787Z,65.41504
2022-11-29T09:11:34.819Z,64.83789
2022-11-29T09:13:34.816Z,65.2207
2022-11-29T09:15:34.781Z,64.30078
2022-11-29T09:18:10.201Z,65.30371
2022-11-29T09:20:10.168Z,65.66895
2022-11-29T09:22:10.162Z,65.91113
2022-11-29T09:24:10.447Z,64.46973
2022-11-29T09:26:10.194Z,64.36719
2022-11-29T09:28:10.171Z,64.63086
2022-11-29T09:30:10.237Z,64.71777
2022-11-29T09:32:59.083Z,64.74512
2022-11-29T09:34:59.025Z,63.76563
2022-11-29T09:36:59.094Z,63.82129
2022-11-29T09:38:59.059Z,63.6377
2022-11-29T09:41:00.051Z,63.66992
2022-11-29T09:42:59.077Z,63.38379
2022-11-29T11:05:20.584Z,63.06445
2022-11-29T11:07:20.743Z,63.21191
2022-11-29T11:09:20.476Z,63.25781
2022-11-29T11:11:20.575Z,63.11621
2022-11-29T16:01:06.005Z,67.54102
2022-11-29T16:12:21.508Z,67.35547
2022-11-29T16:14:21.694Z,67.15625
2022-11-29T16:16:21.705Z,67.14258
2022-11-29T16:18:21.586Z,67.17773
2022-11-29T16:20:21.575Z,68.5459
2022-11-29T16:22:21.536Z,67.73145
2022-11-29T16:25:05.143Z,67.57031
2022-11-29T16:27:05.108Z,67.73047
2022-11-29T16:29:05.194Z,67.65234
2022-11-29T16:31:05.186Z,67.86621
2022-11-29T16:33:05.138Z,68.12891
2022-11-29T16:35:05.022Z,68.14551
2022-11-29T16:37:04.985Z,68.06836
2022-11-29T16:40:17.787Z,67.95313
2022-11-29T16:42:26.011Z,67.94824
2022-11-29T16:44:17.738Z,67.80469
2022-11-29T16:46:17.856Z,68.18652
2022-11-29T16:48:17.831Z,68.06543
2022-11-29T16:50:17.772Z,67.2793
2022-11-29T16:52:17.779Z,67.72559
2022-11-29T16:55:31.424Z,67.7207
2022-11-29T16:57:31.628Z,67.85352
2022-11-29T16:59:31.393Z,68.27539
2022-11-29T17:01:31.747Z,68.31934
2022-11-29T17:03:31.514Z,68.52832
2022-11-29T17:05:31.458Z,68.73242
2022-11-29T17:07:31.688Z,68.54004
2022-11-29T17:11:08.462Z,68.21973
2022-11-29T17:13:08.453Z,68.04492
2022-11-29T17:15:08.499Z,68.4082
2022-11-29T17:17:08.443Z,68.33496
2022-11-29T17:19:08.515Z,67.9834
2022-11-29T17:21:08.496Z,67.64941
2022-11-29T17:23:08.507Z,67.9541
2022-11-29T17:26:23.549Z,67.79492
2022-11-29T17:28:23.350Z,67.77637
2022-11-29T17:30:23.368Z,67.96387
2022-11-29T17:32:27.268Z,67.87305
2022-11-29T17:34:23.521Z,67.50488
2022-11-29T17:36:23.577Z,67.16895
2022-11-29T17:38:23.381Z,67.69336
2022-11-29T17:41:16.278Z,67.61328
2022-11-29T17:43:16.310Z,67.88574
2022-11-29T17:45:16.265Z,68.01172
2022-11-29T17:47:16.200Z,68.14941
2022-11-29T17:49:16.206Z,67.87305
2022-11-29T17:51:50.971Z,67.72852
2022-11-29T17:53:16.310Z,68.0498
2022-11-29T17:56:25.165Z,68.53125
2022-11-29T17:58:25.073Z,68.52832
2022-11-29T18:00:25.126Z,68.63574
2022-11-29T18:02:25.340Z,67.92676
2022-11-29T18:04:25.270Z,68.08105
2022-11-29T18:06:25.349Z,68.25684
2022-11-29T18:08:25.414Z,68.6748
2022-11-29T18:11:08.664Z,68.37402
2022-11-29T18:13:08.547Z,68.50977
2022-11-29T18:15:08.543Z,68.30273
2022-11-29T18:17:08.566Z,68.1123
2022-11-29T18:19:08.545Z,67.77344
2022-11-29T18:21:08.648Z,67.83789
2022-11-29T18:23:08.662Z,67.42285
2022-11-29T18:26:11.890Z,67.8418
2022-11-29T18:28:11.754Z,67.32813
2022-11-29T18:30:11.805Z,67.9043
2022-11-29T18:32:11.880Z,67.5918
2022-11-29T18:34:11.817Z,67.18848
2022-11-29T18:36:12.012Z,70.7041
2022-11-29T18:38:16.964Z,70.625
2022-11-29T18:40:12.102Z,70.23047
2022-11-29T18:41:17.180Z,69.83105
2022-11-29T18:43:17.423Z,69.43262
2022-11-29T18:45:17.347Z,68.89648
2022-11-29T18:47:17.441Z,68.67871
2022-11-29T18:49:17.184Z,68.56348
2022-11-29T18:51:17.499Z,68.41504
2022-11-29T18:53:17.255Z,68.49609
2022-11-29T18:55:17.450Z,68.56543
2022-11-29T18:56:41.105Z,68.73926
2022-11-29T18:58:41.013Z,69.00391
2022-11-29T19:00:41.010Z,69.24805
2022-11-29T19:02:41.171Z,68.79102
2022-11-29T19:04:41.105Z,68.71973
2022-11-29T19:06:41.049Z,68.17383
2022-11-29T19:08:41.160Z,68.59766
2022-11-29T19:12:35.487Z,69.0127
2022-11-29T19:14:35.479Z,69.1543
2022-11-29T19:16:35.748Z,68.69141
2022-11-29T19:18:35.393Z,68.91309
2022-11-29T19:20:35.408Z,68.93848
2022-11-29T19:22:35.469Z,68.94727
2022-11-29T19:24:35.487Z,68.88672
2022-11-29T19:27:14.393Z,69.70801
2022-11-29T19:29:14.713Z,70.11035
2022-11-29T19:31:14.450Z,69.63574
2022-11-29T19:33:14.633Z,69.62891
2022-11-29T19:35:14.507Z,69.53711
2022-11-29T19:37:14.563Z,69.57422
2022-11-29T19:39:14.804Z,69.68652
2022-11-29T19:42:31.079Z,69.8457
2022-11-29T19:45:08.964Z,69.88672
2022-11-29T19:46:31.219Z,69.50684
2022-11-29T19:48:31.129Z,69.29492
2022-11-29T19:50:31.592Z,69.10352
2022-11-29T19:52:31.100Z,69.42578
2022-11-29T19:54:31.193Z,69.63086
2022-11-29T19:57:46.969Z,69.5
2022-11-29T19:59:47.358Z,69.56445
2022-11-29T20:01:46.916Z,69.58203
2022-11-29T20:03:46.979Z,69.72559
2022-11-29T20:05:46.765Z,69.67188
2022-11-29T20:07:47.152Z,69.31836
2022-11-29T20:09:47.493Z,69.70898
2022-11-29T20:12:23.658Z,70.12988
2022-11-29T20:14:22.543Z,70.05566
2022-11-29T20:16:22.682Z,70.05273
2022-11-29T20:18:22.481Z,69.7334
2022-11-29T20:20:22.659Z,69.9834
2022-11-29T20:22:22.501Z,69.90723
2022-11-29T20:24:22.543Z,69.48633
2022-11-29T20:26:22.510Z,69.90039
2022-11-29T20:28:16.605Z,69.96387
2022-11-29T20:30:16.743Z,69.92773
2022-11-29T20:32:16.582Z,70.53125
2022-11-29T20:34:16.669Z,70.65723
2022-11-29T20:36:16.466Z,70.62695
2022-11-29T20:38:16.553Z,70.89648
2022-11-29T20:40:16.403Z,71.42773
2022-11-29T20:42:57.731Z,71.1416
2022-11-29T20:44:57.549Z,70.3584
2022-11-29T20:46:57.633Z,70.22461
2022-11-29T20:49:06.274Z,70.13477
2022-11-29T20:51:00.926Z,70.38086
2022-11-29T20:52:57.842Z,70.16602
2022-11-29T20:54:57.875Z,70.4248
2022-11-29T20:58:14.761Z,70.0332
2022-11-29T21:00:14.700Z,70.04883
2022-11-29T21:02:14.856Z,70.19727
2022-11-29T21:04:23.081Z,70.29199
2022-11-29T21:06:14.738Z,70.31055
2022-11-29T21:08:14.714Z,70.37012
2022-11-29T21:10:14.641Z,69.90137
2022-11-29T21:13:42.848Z,69.91797
2022-11-29T21:15:43.319Z,69.68848
2022-11-29T21:17:43.105Z,69.40527
2022-11-29T21:19:43.074Z,69.54492
2022-11-29T21:21:42.742Z,69.47168
2022-11-29T21:23:42.758Z,70.4375
2022-11-29T21:25:43.036Z,70.3584
2022-11-29T21:28:35.384Z,70.58789
2022-11-29T21:30:35.175Z,69.70117
2022-11-29T21:32:35.268Z,69.73535
2022-11-29T21:34:35.382Z,69.62793
2022-11-29T21:36:35.373Z,69.73047
2022-11-29T21:38:37.635Z,70.06934
2022-11-29T21:40:35.207Z,69.55469
2022-11-29T21:44:04.745Z,70.41602
2022-11-29T21:45:27.868Z,70.25879
2022-11-29T21:47:27.878Z,70.70898
2022-11-29T21:49:27.865Z,70.27246
2022-11-29T21:51:27.981Z,69.87695
2022-11-29T21:53:27.903Z,69.77734
2022-11-29T21:55:32.677Z,69.66016
2022-11-29T21:58:50.391Z,70.58887
2022-11-29T22:00:50.448Z,70.21191
2022-11-29T22:02:50.574Z,70.41602
2022-11-29T22:04:50.237Z,70.25
2022-11-29T22:06:50.220Z,70.32129
2022-11-29T22:08:50.280Z,70.51758
2022-11-29T22:10:50.203Z,69.95703
2022-11-29T22:14:27.236Z,69.80469
2022-11-29T22:16:27.342Z,69.70898
2022-11-29T22:18:27.221Z,69.21777
2022-11-29T22:20:27.560Z,69.73633
2022-11-29T22:22:28.607Z,69.68945
2022-11-29T22:24:27.306Z,69.21484
2022-11-29T22:26:27.387Z,69.37207
2022-11-29T22:29:43.075Z,69.16699
2022-11-29T22:31:43.154Z,69.73047
2022-11-29T22:33:43.047Z,69.92871
2022-11-29T22:35:43.035Z,70.39453
2022-11-29T22:37:43.114Z,70.58008
2022-11-29T22:39:43.039Z,69.9873
2022-11-29T22:41:43.068Z,69.50195
2022-11-29T22:44:14.576Z,69.33691
2022-11-29T22:46:14.750Z,70.22266
2022-11-29T22:48:14.530Z,70.53906
2022-11-29T22:50:14.532Z,70.47754
2022-11-29T22:52:14.533Z,70.32227
2022-11-29T22:54:14.525Z,70.44336
2022-11-29T22:56:14.601Z,70.23047
2022-11-29T22:59:11.280Z,70.47168
2022-11-29T23:01:11.473Z,70.34668
2022-11-29T23:03:11.261Z,70.15625
2022-11-29T23:05:11.306Z,69.85742
2022-11-29T23:07:11.270Z,70.28516
2022-11-29T23:09:11.290Z,70.53906
2022-11-29T23:11:11.305Z,70.3623
2022-11-29T23:13:11.256Z,70.11914
2022-11-29T23:14:39.199Z,70.46191
2022-11-29T23:16:39.455Z,70.61133
2022-11-29T23:18:39.220Z,70.60547
2022-11-29T23:20:39.215Z,70.91309
2022-11-29T23:22:39.429Z,70.57617
2022-11-29T23:24:39.189Z,70.87695
2022-11-29T23:26:39.310Z,70.78809
2022-11-29T23:29:29.838Z,70.94434
2022-11-29T23:31:29.981Z,71.01953
2022-11-29T23:33:29.796Z,70.54199
2022-11-29T23:35:29.804Z,70.27441
2022-11-29T23:37:29.802Z,70.46582
2022-11-29T23:39:29.804Z,70.38086
2022-11-29T23:41:29.843Z,70.55859
2022-11-29T23:43:29.856Z,70.95703
2022-11-29T23:45:03.550Z,71.08496
2022-11-29T23:47:03.467Z,70.7832
2022-11-29T23:49:03.461Z,70.4043
2022-11-29T23:51:03.469Z,70.90723
2022-11-29T23:53:03.446Z,70.94727
2022-11-29T23:55:03.506Z,70.71875
2022-11-29T23:57:03.438Z,70.39648
